Time,TemperatureF,DewpointF,PressureIn,WindDirection,WindDirectionDegrees,WindSpeedMPH,WindSpeedGustMPH,Humidity,HourlyPrecipIn,Conditions,Clouds,dailyrainin,SoftwareType,DateUTC
2017-03-24 00:03:00,44.4,35.8,29.98,SE,133,7.0,9.0,76,0.00,,,0.00,,2017-03-24 05:03:00,
2017-03-24 00:08:00,44.4,35.8,29.98,SE,129,7.0,9.0,76,0.00,,,0.00,,2017-03-24 05:08:00,
2017-03-24 00:13:00,44.4,36.1,29.98,SE,127,4.0,7.0,77,0.00,,,0.00,,2017-03-24 05:13:00,
2017-03-24 00:18:00,44.5,36.2,29.98,SSE,159,6.0,7.0,77,0.00,,,0.00,,2017-03-24 05:18:00,
2017-03-24 00:23:00,44.4,36.1,29.98,SSE,161,4.0,7.0,77,0.00,,,0.00,,2017-03-24 05:23:00,
2017-03-24 00:28:00,44.6,36.7,29.97,SE,141,5.0,5.0,78,0.00,,,0.00,,2017-03-24 05:28:00,
2017-03-24 00:33:00,44.5,36.6,29.97,SE,133,5.0,5.0,78,0.00,,,0.00,,2017-03-24 05:33:00,
2017-03-24 00:38:00,44.1,36.2,29.96,SE,142,5.0,7.0,78,0.00,,,0.00,,2017-03-24 05:38:00,
2017-03-24 00:43:00,43.8,36.2,29.96,SSE,152,3.0,7.0,79,0.00,,,0.00,,2017-03-24 05:43:00,
2017-03-24 00:48:00,43.8,36.6,29.96,SSE,152,4.0,7.0,80,0.00,,,0.00,,2017-03-24 05:48:00,
2017-03-24 00:53:00,44.0,36.8,29.96,SSE,152,7.0,7.0,80,0.00,,,0.00,,2017-03-24 05:53:00,
2017-03-24 00:58:00,44.3,37.1,29.96,South,177,6.0,8.0,80,0.00,,,0.00,,2017-03-24 05:58:00,
2017-03-24 01:03:00,44.3,37.1,29.95,South,175,6.0,8.0,80,0.00,,,0.00,,2017-03-24 06:03:00,
2017-03-24 01:08:00,44.4,37.6,29.95,SSE,159,4.0,6.0,81,0.00,,,0.00,,2017-03-24 06:08:00,
2017-03-24 01:13:00,44.4,37.6,29.95,SSE,164,9.0,9.0,81,0.00,,,0.00,,2017-03-24 06:13:00,
2017-03-24 01:18:00,44.5,37.7,29.95,SSE,161,5.0,9.0,81,0.00,,,0.00,,2017-03-24 06:18:00,
2017-03-24 01:23:00,44.3,37.5,29.95,SSE,148,4.0,7.0,81,0.00,,,0.00,,2017-03-24 06:23:00,
2017-03-24 01:33:00,44.1,37.6,29.95,SSE,150,2.0,6.0,82,0.00,,,0.00,,2017-03-24 06:33:00,
2017-03-24 01:38:00,43.9,37.4,29.94,SSE,153,3.0,6.0,82,0.00,,,0.00,,2017-03-24 06:38:00,
2017-03-24 01:43:00,43.8,37.3,29.95,SSE,151,1.0,6.0,82,0.00,,,0.00,,2017-03-24 06:43:00,
2017-03-24 01:48:00,43.7,37.2,29.94,SE,140,3.0,5.0,82,0.00,,,0.00,,2017-03-24 06:48:00,
2017-03-24 01:53:00,43.3,37.2,29.94,SE,140,5.0,5.0,83,0.00,,,0.00,,2017-03-24 06:53:00,
2017-03-24 01:58:00,43.2,37.4,29.94,SSE,153,3.0,5.0,84,0.00,,,0.00,,2017-03-24 06:58:00,
2017-03-24 02:03:00,43.2,37.4,29.94,SSE,159,2.0,5.0,84,0.00,,,0.00,,2017-03-24 07:03:00,
2017-03-24 02:08:00,43.1,37.3,29.94,SE,138,3.0,4.0,84,0.00,,,0.00,,2017-03-24 07:08:00,
2017-03-24 02:13:00,43.1,37.3,29.94,SE,127,3.0,4.0,84,0.00,,,0.00,,2017-03-24 07:13:00,
2017-03-24 02:18:00,42.6,36.5,29.94,SE,128,3.0,4.0,83,0.00,,,0.00,,2017-03-24 07:18:00,
2017-03-24 02:23:00,42.3,36.5,29.93,SE,130,4.0,5.0,84,0.00,,,0.00,,2017-03-24 07:23:00,
2017-03-24 02:28:00,42.0,36.6,29.93,SE,130,3.0,5.0,85,0.00,,,0.00,,2017-03-24 07:28:00,
2017-03-24 02:33:00,41.8,36.4,29.93,SE,130,2.0,5.0,85,0.00,,,0.00,,2017-03-24 07:33:00,
2017-03-24 02:38:00,42.0,37.0,29.94,SE,130,2.0,4.0,86,0.00,,,0.00,,2017-03-24 07:38:00,
2017-03-24 02:43:00,42.3,37.3,29.94,SE,130,0.0,3.0,86,0.00,,,0.00,,2017-03-24 07:43:00,
2017-03-24 02:48:00,42.3,36.9,29.95,SE,130,2.0,2.0,85,0.00,,,0.00,,2017-03-24 07:48:00,